Time,TemperatureF,DewpointF,PressureIn,WindDirection,WindDirectionDegrees,WindSpeedMPH,WindSpeedGustMPH,Humidity,HourlyPrecipIn,Conditions,Clouds,dailyrainin,SoftwareType,DateUTC
2013-04-11 00:00:00,66.6,56.5,29.85,North,357,0.0,5.0,70,0.00,,CLR,0.00,VWS V14.00,2013-04-11 04:00:00,
2013-04-11 00:15:00,66.3,56.6,29.86,North,357,0.0,3.0,71,0.00,,CLR,0.00,VWS V14.00,2013-04-11 04:15:00,
2013-04-11 00:30:00,66.0,56.7,29.86,North,357,0.0,3.0,72,0.00,,CLR,0.00,VWS V14.00,2013-04-11 04:30:00,
2013-04-11 00:45:00,65.8,56.2,29.86,North,359,0.0,4.0,71,0.00,,CLR,0.00,VWS V14.00,2013-04-11 04:45:00,
2013-04-11 01:00:00,65.5,56.2,29.85,North,356,0.0,2.0,72,0.00,,CLR,0.00,VWS V14.00,2013-04-11 05:00:00,
2013-04-11 01:15:00,65.0,56.2,29.85,North,359,0.0,3.0,73,0.00,,CLR,0.00,VWS V14.00,2013-04-11 05:15:00,
2013-04-11 01:30:00,64.2,55.4,29.85,North,357,0.0,1.0,73,0.00,,CLR,0.00,VWS V14.00,2013-04-11 05:30:00,
2013-04-11 01:45:00,63.4,55.3,29.84,North,357,0.0,1.0,75,0.00,,CLR,0.00,VWS V14.00,2013-04-11 05:45:00,
2013-04-11 02:00:00,62.7,55.0,29.84,North,357,0.0,1.0,76,0.00,,CLR,0.00,VWS V14.00,2013-04-11 06:00:00,
2013-04-11 02:15:00,62.4,54.8,29.84,North,356,0.0,3.0,76,0.00,,CLR,0.00,VWS V14.00,2013-04-11 06:15:00,
2013-04-11 02:30:00,62.0,54.7,29.84,North,359,0.0,3.0,77,0.00,,CLR,0.00,VWS V14.00,2013-04-11 06:30:00,
2013-04-11 02:45:00,61.8,54.9,29.84,North,357,0.0,2.0,78,0.00,,CLR,0.00,VWS V14.00,2013-04-11 06:45:00,
2013-04-11 03:00:00,61.5,54.6,29.84,North,357,0.0,2.0,78,0.00,,CLR,0.00,VWS V14.00,2013-04-11 07:00:00,
2013-04-11 03:15:00,61.3,54.7,29.83,North,357,0.0,6.0,79,0.00,,CLR,0.00,VWS V14.00,2013-04-11 07:15:00,
2013-04-11 03:30:00,61.0,54.5,29.83,North,356,0.0,6.0,79,0.00,,CLR,0.00,VWS V14.00,2013-04-11 07:30:00,
2013-04-11 03:45:00,61.0,54.8,29.83,North,357,0.0,3.0,80,0.00,,CLR,0.00,VWS V14.00,2013-04-11 07:45:00,
2013-04-11 04:00:00,61.0,54.8,29.83,North,353,0.0,6.0,80,0.00,,CLR,0.00,VWS V14.00,2013-04-11 08:00:00,
2013-04-11 04:15:00,61.2,55.0,29.84,North,353,0.0,2.0,80,0.00,,CLR,0.00,VWS V14.00,2013-04-11 08:15:00,
2013-04-11 04:30:00,61.0,55.1,29.84,North,356,0.0,2.0,81,0.00,,CLR,0.00,VWS V14.00,2013-04-11 08:30:00,
2013-04-11 04:45:00,60.9,55.4,29.84,North,354,0.0,3.0,82,0.00,,CLR,0.00,VWS V14.00,2013-04-11 08:45:00,
2013-04-11 05:00:00,60.5,55.0,29.84,North,353,0.0,5.0,82,0.00,,CLR,0.00,VWS V14.00,2013-04-11 09:00:00,
2013-04-11 05:15:00,59.9,55.1,29.85,North,353,0.0,2.0,84,0.00,,CLR,0.00,VWS V14.00,2013-04-11 09:15:00,
2013-04-11 05:30:00,59.6,54.8,29.85,North,353,0.0,2.0,84,0.00,,CLR,0.00,VWS V14.00,2013-04-11 09:30:00,
2013-04-11 05:45:00,59.2,54.7,29.86,North,352,0.0,2.0,85,0.00,,CLR,0.00,VWS V14.00,2013-04-11 09:45:00,
2013-04-11 06:00:00,58.6,54.4,29.87,North,350,0.0,0.0,86,0.00,,CLR,0.00,VWS V14.00,2013-04-11 10:00:00,
2013-04-11 06:15:00,58.3,54.8,29.88,NNW,347,0.0,0.0,88,0.00,,CLR,0.00,VWS V14.00,2013-04-11 10:15:00,
2013-04-11 06:30:00,58.7,55.2,29.89,NNW,347,0.0,1.0,88,0.00,,CLR,0.00,VWS V14.00,2013-04-11 10:30:00,
2013-04-11 06:45:00,59.6,56.0,29.89,NNW,340,0.0,2.0,88,0.00,,CLR,0.00,VWS V14.00,2013-04-11 10:45:00,
2013-04-11 07:00:00,60.4,56.5,29.89,NNW,342,0.0,2.0,87,0.00,,CLR,0.00,VWS V14.00,2013-04-11 11:00:00,
2013-04-11 07:30:00,62.0,57.5,29.89,NNW,343,0.0,2.0,85,0.00,,CLR,0.00,VWS V14.00,2013-04-11 11:30:00,
2013-04-11 07:45:00,63.1,58.2,29.89,NW,322,0.0,5.0,84,0.00,,CLR,0.00,VWS V14.00,2013-04-11 11:45:00,
2013-04-11 08:00:00,64.0,58.7,29.89,North,349,2.0,7.0,83,0.00,,BKN013,0.00,VWS V14.00,2013-04-11 12:00:00,
2013-04-11 08:15:00,64.8,58.5,29.89,North,349,0.0,5.0,80,0.00,,BKN013,0.00,VWS V14.00,2013-04-11 12:15:00,
2013-04-11 08:30:00,65.2,59.2,29.89,NNW,347,0.0,6.0,81,0.00,,BKN013,0.00,VWS V14.00,2013-04-11 12:30:00,
2013-04-11 09:00:00,67.1,59.7,29.88,NW,305,0.0,6.0,77,0.00,,BKN013,0.00,VWS V14.00,2013-04-11 13:00:00,
2013-04-11 09:15:00,68.4,60.2,29.88,NNW,346,1.0,6.0,75,0.00,,BKN013,0.00,VWS V14.00,2013-04-11 13:15:00,
2013-04-11 09:30:00,69.4,60.4,29.89,NNW,346,0.0,6.0,73,0.00,,BKN013,0.00,VWS V14.00,2013-04-11 13:30:00,
2013-04-11 09:45:00,70.8,60.5,29.88,NNW,342,2.0,5.0,70,0.00,,BKN013,0.00,VWS V14.00,2013-04-11 13:45:00,
2013-04-11 10:00:00,71.1,60.8,29.88,NNW,343,0.0,7.0,70,0.00,,BKN015,0.00,VWS V14.00,2013-04-11 14:00:00,
2013-04-11 10:15:00,71.1,60.8,29.88,NNW,339,0.0,6.0,70,0.00,,BKN015,0.00,VWS V14.00,2013-04-11 14:15:00,
2013-04-11 10:30:00,71.8,60.7,29.88,NNW,343,0.0,6.0,68,0.00,,BKN015,0.00,VWS V14.00,2013-04-11 14:30:00,
2013-04-11 10:45:00,72.1,61.8,29.87,NNW,347,1.0,6.0,70,0.00,,BKN015,0.00,VWS V14.00,2013-04-11 14:45:00,
2013-04-11 11:00:00,73.7,61.2,29.86,North,349,1.0,7.0,65,0.00,,BKN019,0.00,VWS V14.00,2013-04-11 15:00:00,
2013-04-11 11:15:00,74.7,61.3,29.85,NNW,336,6.0,10.0,63,0.00,,BKN019,0.00,VWS V14.00,2013-04-11 15:15:00,
2013-04-11 11:30:00,75.8,61.9,29.84,NNW,343,0.0,6.0,62,0.00,,BKN019,0.00,VWS V14.00,2013-04-11 15:30:00,
2013-04-11 11:45:00,77.0,62.1,29.83,NNW,336,2.0,6.0,60,0.00,,BKN019,0.00,VWS V14.00,2013-04-11 15:45:00,
2013-04-11 12:00:00,76.7,60.8,29.83,NNW,328,13.0,13.0,58,0.00,,SCT026,0.00,VWS V14.00,2013-04-11 16:00:00,
2013-04-11 12:15:00,76.3,60.5,29.83,NNW,347,0.0,13.0,58,0.00,,SCT026,0.00,VWS V14.00,2013-04-11 16:15:00,
2013-04-11 12:45:00,76.5,60.2,29.81,North,359,1.0,7.0,57,0.00,,SCT026,0.00,VWS V14.00,2013-04-11 16:45:00,
2013-04-11 13:00:00,77.6,59.7,29.80,North,350,0.0,6.0,54,0.00,,BKN034,0.00,VWS V14.00,2013-04-11 17:00:00,
2013-04-11 13:15:00,78.6,59.5,29.80,NNW,346,3.0,10.0,52,0.00,,BKN034,0.00,VWS V14.00,2013-04-11 17:15:00,
2013-04-11 13:30:00,79.0,58.8,29.79,NNW,343,6.0,8.0,50,0.00,,BKN034,0.00,VWS V14.00,2013-04-11 17:30:00,
2013-04-11 13:45:00,78.8,58.6,29.78,NW,305,0.0,8.0,50,0.00,,BKN034,0.00,VWS V14.00,2013-04-11 17:45:00,
2013-04-11 14:15:00,79.4,56.8,29.77,NNW,346,3.0,11.0,46,0.00,,SCT035,0.00,VWS V14.00,2013-04-11 18:15:00,
2013-04-11 14:30:00,79.9,56.7,29.76,NNW,346,7.0,10.0,45,0.00,,SCT035,0.00,VWS V14.00,2013-04-11 18:30:00,
2013-04-11 14:45:00,79.8,56.6,29.75,North,359,2.0,10.0,45,0.00,,SCT035,0.00,VWS V14.00,2013-04-11 18:45:00,
2013-04-11 15:00:00,80.3,57.0,29.74,North,349,7.0,12.0,45,0.00,,SCT044,0.00,VWS V14.00,2013-04-11 19:00:00,
2013-04-11 15:15:00,80.5,57.8,29.73,NNW,344,5.0,10.0,46,0.00,,SCT044,0.00,VWS V14.00,2013-04-11 19:15:00,
2013-04-11 15:30:00,80.7,58.0,29.72,NW,312,1.0,10.0,46,0.00,,SCT044,0.00,VWS V14.00,2013-04-11 19:30:00,
2013-04-11 15:45:00,80.1,58.7,29.72,North,354,1.0,8.0,48,0.00,,SCT044,0.00,VWS V14.00,2013-04-11 19:45:00,
2013-04-11 16:00:00,79.4,58.0,29.71,NNW,337,0.0,8.0,48,0.00,,SCT049,0.00,VWS V14.00,2013-04-11 20:00:00,
2013-04-11 16:15:00,79.6,58.2,29.71,NW,325,4.0,11.0,48,0.00,,SCT049,0.00,VWS V14.00,2013-04-11 20:15:00,
2013-04-11 17:30:00,79.2,58.4,29.70,North,353,6.0,6.0,49,0.00,,FEW050,0.00,VWS V14.00,2013-04-11 21:30:00,
2013-04-11 17:31:00,79.0,59.9,29.70,North,354,0.0,11.0,52,0.00,,SCT049,0.00,VWS V14.00,2013-04-11 21:31:00,
2013-04-11 17:46:00,78.6,60.1,29.70,NNW,336,1.0,6.0,53,0.00,,SCT049,0.00,VWS V14.00,2013-04-11 21:46:00,
2013-04-11 18:01:00,78.6,60.6,29.70,NNW,328,0.0,7.0,54,0.00,,FEW050,0.00,VWS V14.00,2013-04-11 22:01:00,
2013-04-11 18:16:00,79.0,59.3,29.70,North,357,0.0,6.0,51,0.00,,FEW050,0.00,VWS V14.00,2013-04-11 22:16:00,
2013-04-11 18:46:00,78.6,58.4,29.70,NNW,335,0.0,7.0,50,0.00,,FEW050,0.00,VWS V14.00,2013-04-11 22:46:00,
2013-04-11 19:02:00,77.4,58.4,29.70,North,359,2.0,7.0,52,0.00,,SCT070,0.00,VWS V14.00,2013-04-11 23:02:00,
2013-04-11 19:16:00,76.5,59.2,29.70,North,357,0.0,6.0,55,0.00,,SCT070,0.00,VWS V14.00,2013-04-11 23:16:00,
2013-04-11 19:30:00,72.5,58.8,29.69,NNW,340,0.0,3.0,62,0.00,,FEW050,0.00,VWS V14.00,2013-04-11 23:30:00,
2013-04-11 19:31:00,75.8,59.0,29.70,North,359,0.0,6.0,56,0.00,,SCT070,0.00,VWS V14.00,2013-04-11 23:31:00,
2013-04-11 19:45:00,71.6,58.8,29.68,NNW,340,0.0,0.0,64,0.00,,FEW050,0.00,VWS V14.00,2013-04-11 23:45:00,
2013-04-11 19:46:00,75.3,59.0,29.70,NNW,339,0.0,5.0,57,0.00,,SCT070,0.00,VWS V14.00,2013-04-11 23:46:00,
2013-04-11 20:00:00,70.9,58.6,29.69,NNW,340,0.0,1.0,65,0.00,,FEW050,0.00,VWS V14.00,2013-04-12 00:00:00,
2013-04-11 20:02:00,74.2,59.0,29.70,NNW,339,0.0,2.0,59,0.00,,BKN110,0.00,VWS V14.00,2013-04-12 00:02:00,
2013-04-11 20:15:00,70.9,59.0,29.68,NNW,337,0.0,2.0,66,0.00,,FEW050,0.00,VWS V14.00,2013-04-12 00:15:00,
2013-04-11 20:17:00,73.3,58.6,29.69,NNW,337,0.0,1.0,60,0.00,,BKN110,0.00,VWS V14.00,2013-04-12 00:17:00,
2013-04-11 20:45:00,71.1,59.2,29.68,NNW,340,0.0,2.0,66,0.00,,FEW050,0.00,VWS V14.00,2013-04-12 00:45:00,
2013-04-11 21:15:00,72.0,60.5,29.68,North,350,0.0,6.0,67,0.00,,BKN110,0.00,VWS V14.00,2013-04-12 01:15:00,
2013-04-11 21:32:00,71.1,59.2,29.68,NNW,340,0.0,2.0,66,0.00,,FEW050,0.00,VWS V14.00,2013-04-12 01:32:00,
2013-04-11 22:30:00,72.0,62.9,29.68,NW,306,0.0,6.0,73,0.00,,BKN120,0.00,VWS V14.00,2013-04-12 02:30:00,
2013-04-11 22:31:00,72.1,61.0,29.67,NNW,344,3.0,6.0,68,0.00,,BKN110,0.00,VWS V14.00,2013-04-12 02:31:00,
2013-04-11 22:46:00,72.3,62.0,29.67,NNW,340,2.0,6.0,70,0.00,,BKN110,0.00,VWS V14.00,2013-04-12 02:46:00,
2013-04-11 23:00:00,71.6,62.1,29.67,NNW,343,2.0,8.0,72,0.00,,SCT027,0.00,VWS V14.00,2013-04-12 03:00:00,
2013-04-11 23:01:00,72.1,62.2,29.67,NNW,340,3.0,5.0,71,0.00,,BKN120,0.00,VWS V14.00,2013-04-12 03:01:00,
2013-04-11 23:15:00,71.3,61.8,29.66,NNW,339,2.0,8.0,72,0.00,,SCT027,0.00,VWS V14.00,2013-04-12 03:15:00,
2013-04-11 23:16:00,72.1,63.0,29.67,NNW,347,0.0,9.0,73,0.00,,BKN120,0.00,VWS V14.00,2013-04-12 03:16:00,
2013-04-11 23:30:00,70.9,61.8,29.67,NNW,344,1.0,11.0,73,0.00,,SCT027,0.00,VWS V14.00,2013-04-12 03:30:00,
2013-04-11 23:45:00,70.8,62.1,29.66,NNW,339,0.0,6.0,74,0.00,,SCT027,0.00,VWS V14.00,2013-04-12 03:45:00,
2013-04-11 23:46:00,71.8,61.9,29.67,NNW,330,2.0,14.0,71,0.00,,BKN120,0.00,VWS V14.00,2013-04-12 03:46:00,